createdAt,value
2019-03-25T00:01:03.618Z,29
2019-03-25T00:06:06.050Z,30
2019-03-25T00:11:08.532Z,30
2019-03-25T00:16:11.169Z,30
2019-03-25T00:21:13.452Z,34
2019-03-25T00:26:16.182Z,27
2019-03-25T00:31:18.349Z,22
2019-03-25T00:36:20.833Z,20
2019-03-25T00:41:23.310Z,22
2019-03-25T00:46:25.805Z,20
2019-03-25T00:51:28.183Z,23
2019-03-25T00:56:30.929Z,20
2019-03-25T01:01:33.095Z,19
2019-03-25T01:06:35.535Z,20
2019-03-25T01:11:48.570Z,21
2019-03-25T01:16:40.596Z,19
2019-03-25T01:21:42.924Z,21
2019-03-25T01:26:45.724Z,21
2019-03-25T01:31:47.903Z,20
2019-03-25T01:36:50.375Z,21
2019-03-25T01:41:52.741Z,20
2019-03-25T01:46:55.338Z,19
2019-03-25T01:51:57.662Z,22
2019-03-25T01:57:00.474Z,22
2019-03-25T02:02:02.660Z,21
2019-03-25T02:07:05.324Z,24
2019-03-25T02:12:07.493Z,20
2019-03-25T02:17:10.034Z,18
2019-03-25T02:22:12.467Z,19
2019-03-25T02:27:15.293Z,17
2019-03-25T02:32:17.350Z,20
2019-03-25T02:37:19.795Z,18
2019-03-25T02:42:22.243Z,18
2019-03-25T02:47:24.710Z,16
2019-03-25T02:52:27.149Z,18
2019-03-25T02:57:29.629Z,15
2019-03-25T03:02:32.075Z,16
2019-03-25T03:07:34.523Z,17
2019-03-25T03:12:36.989Z,16
2019-03-25T03:17:39.528Z,17
2019-03-25T03:22:41.992Z,15
2019-03-25T03:27:44.690Z,16
2019-03-25T03:32:46.840Z,15
2019-03-25T03:37:49.308Z,14
2019-03-25T03:42:51.773Z,14
2019-03-25T03:47:54.251Z,13
2019-03-25T03:52:56.806Z,12
2019-03-25T03:57:59.486Z,11
2019-03-25T04:03:01.746Z,13
2019-03-25T04:08:04.139Z,12
2019-03-25T04:13:06.561Z,10
2019-03-25T04:18:09.164Z,12
2019-03-25T04:23:11.507Z,11
2019-03-25T04:28:14.835Z,10
2019-03-25T04:33:16.429Z,10
2019-03-25T04:43:21.405Z,11
2019-03-25T04:48:23.898Z,10
2019-03-25T04:53:26.304Z,9
2019-03-25T04:58:29.080Z,9
2019-03-25T05:03:31.277Z,9
2019-03-25T05:08:33.698Z,9
2019-03-25T05:13:36.188Z,8
2019-03-25T05:18:38.656Z,8
2019-03-25T05:23:41.183Z,8
2019-03-25T05:28:43.862Z,7
2019-03-25T05:33:46.004Z,7
2019-03-25T05:38:48.477Z,7
2019-03-25T05:43:51.058Z,7
2019-03-25T05:48:53.436Z,6
2019-03-25T05:53:55.863Z,6
2019-03-25T06:04:00.800Z,5
2019-03-25T06:09:03.276Z,5
2019-03-25T06:19:08.273Z,5
2019-03-25T06:24:10.666Z,4
2019-03-25T06:29:13.097Z,5
2019-03-25T06:34:15.925Z,4
2019-03-25T06:39:18.021Z,6
2019-03-25T06:44:20.481Z,4
2019-03-25T06:49:23.034Z,4
2019-03-25T06:54:25.410Z,4
2019-03-25T06:59:27.871Z,4
2019-03-25T07:04:30.319Z,5
2019-03-25T07:09:32.789Z,4
2019-03-25T07:14:35.228Z,5
2019-03-25T07:19:37.783Z,5
2019-03-25T07:24:40.150Z,5
2019-03-25T07:29:42.697Z,4
2019-03-25T07:34:45.444Z,5
2019-03-25T07:39:47.546Z,4
2019-03-25T07:44:50.021Z,5
2019-03-25T07:49:52.571Z,5
2019-03-25T07:54:54.913Z,4
2019-03-25T07:59:57.386Z,5
2019-03-25T08:05:00.185Z,4
2019-03-25T08:10:02.340Z,5
2019-03-25T08:15:04.735Z,4
2019-03-25T08:20:07.277Z,5
2019-03-25T08:25:09.649Z,6
2019-03-25T08:30:12.139Z,7
2019-03-25T08:35:15.169Z,8
2019-03-25T08:40:17.052Z,7
2019-03-25T08:45:19.522Z,8
2019-03-25T08:50:22.125Z,8
2019-03-25T08:55:24.466Z,8
2019-03-25T09:00:26.892Z,8
2019-03-25T09:05:29.720Z,10
2019-03-25T09:10:31.823Z,9
2019-03-25T09:15:34.376Z,8
2019-03-25T09:20:36.837Z,9
2019-03-25T09:25:39.242Z,8
2019-03-25T09:30:41.751Z,7
2019-03-25T09:35:44.558Z,7
2019-03-25T09:40:46.623Z,7
2019-03-25T09:45:49.097Z,6
2019-03-25T09:50:51.581Z,7
2019-03-25T09:55:54.012Z,5
2019-03-25T10:00:56.454Z,6
2019-03-25T10:11:01.619Z,6
2019-03-25T10:16:03.793Z,4
2019-03-25T10:21:06.265Z,4
2019-03-25T10:26:08.810Z,4
2019-03-25T10:31:11.201Z,5
2019-03-25T10:36:13.805Z,3
2019-03-25T10:41:16.379Z,4
2019-03-25T10:46:18.573Z,3
2019-03-25T10:51:21.032Z,3
2019-03-25T10:56:23.528Z,4
2019-03-25T11:01:25.928Z,3
2019-03-25T11:06:28.403Z,2
2019-03-25T11:11:31.381Z,2
2019-03-25T11:21:35.822Z,2
2019-03-25T11:26:38.307Z,3
2019-03-25T11:31:40.743Z,4
2019-03-25T11:36:43.147Z,2
2019-03-25T11:41:45.948Z,1
2019-03-25T11:46:48.033Z,2
2019-03-25T11:51:50.538Z,2
2019-03-25T11:56:52.969Z,2
2019-03-25T12:01:55.404Z,2
2019-03-25T12:06:57.893Z,1
2019-03-25T12:12:00.621Z,2
2019-03-25T12:17:02.927Z,2
2019-03-25T12:22:05.256Z,2
2019-03-25T12:27:07.700Z,1
2019-03-25T12:32:15.177Z,1
2019-03-25T12:37:12.626Z,1
2019-03-25T12:42:15.469Z,2
2019-03-25T12:47:17.569Z,2
2019-03-25T12:52:19.988Z,2
2019-03-25T12:57:22.457Z,1
2019-03-25T13:02:24.899Z,1
2019-03-25T13:07:27.381Z,1
2019-03-25T13:17:32.402Z,1
2019-03-25T13:27:37.225Z,1
2019-03-25T13:32:39.692Z,1
2019-03-25T13:37:42.182Z,1
2019-03-25T13:42:44.588Z,1
2019-03-25T13:47:47.031Z,2
2019-03-25T13:52:49.478Z,2
2019-03-25T13:57:51.950Z,1
2019-03-25T14:02:54.420Z,1
2019-03-25T14:07:56.842Z,2
2019-03-25T14:12:59.293Z,2
2019-03-25T14:18:01.844Z,0
2019-03-25T14:23:04.204Z,0
2019-03-25T14:28:06.723Z,0
2019-03-25T14:33:09.550Z,0
2019-03-25T14:38:11.630Z,0
2019-03-25T14:43:14.068Z,0
2019-03-25T14:48:17.028Z,0
2019-03-25T14:53:19.026Z,0
2019-03-25T14:58:21.543Z,0
2019-03-25T15:03:24.224Z,0
2019-03-25T15:08:26.653Z,0
2019-03-25T15:13:29.024Z,2
2019-03-25T15:18:31.345Z,1
2019-03-25T15:23:33.784Z,1
2019-03-25T15:28:36.432Z,1
2019-03-25T15:33:39.044Z,2
2019-03-25T15:38:46.183Z,2
2019-03-25T15:43:43.609Z,2
2019-03-25T15:48:46.155Z,2
2019-03-25T15:53:48.581Z,2
2019-03-25T15:58:50.992Z,2
2019-03-25T16:03:53.838Z,1
2019-03-25T16:08:55.935Z,0
2019-03-25T16:19:00.856Z,1
2019-03-25T16:24:03.311Z,1
2019-03-25T16:29:05.835Z,1
2019-03-25T16:34:08.744Z,2
2019-03-25T16:39:10.884Z,2
2019-03-25T16:44:13.148Z,3
2019-03-25T16:49:15.663Z,2
2019-03-25T16:54:18.161Z,2
2019-03-25T16:59:20.612Z,1
2019-03-25T17:04:23.462Z,2
2019-03-25T17:09:25.540Z,3
2019-03-25T17:14:27.946Z,3
2019-03-25T17:19:30.398Z,5
2019-03-25T17:24:32.901Z,7
2019-03-25T17:29:35.324Z,7
2019-03-25T17:34:38.137Z,6
2019-03-25T17:39:40.284Z,6
2019-03-25T17:44:42.749Z,5
2019-03-25T17:49:45.290Z,4
2019-03-25T17:54:47.714Z,4
2019-03-25T17:59:50.128Z,4
2019-03-25T18:04:52.898Z,4
2019-03-25T18:09:55.066Z,3
2019-03-25T18:14:57.528Z,3
2019-03-25T18:20:00.243Z,3
2019-03-25T18:25:02.610Z,4
2019-03-25T18:30:04.971Z,5
2019-03-25T18:35:07.419Z,5
2019-03-25T18:40:09.823Z,5
2019-03-25T18:45:12.344Z,6
2019-03-25T18:50:14.742Z,6
2019-03-25T18:55:17.374Z,5
2019-03-25T19:00:19.682Z,6
2019-03-25T19:05:22.152Z,6
2019-03-25T19:10:24.585Z,6
2019-03-25T19:15:27.071Z,6
2019-03-25T19:20:29.543Z,6
2019-03-25T19:25:32.117Z,7
2019-03-25T19:30:34.462Z,7
2019-03-25T19:35:37.027Z,7
2019-03-25T19:40:39.384Z,7
2019-03-25T19:45:41.850Z,7
2019-03-25T19:50:44.282Z,8
2019-03-25T19:55:46.786Z,7
2019-03-25T20:00:49.227Z,7
2019-03-25T20:05:52.101Z,9
2019-03-25T20:10:54.209Z,9
2019-03-25T20:15:56.593Z,11
2019-03-25T20:20:59.115Z,10
2019-03-25T20:26:01.619Z,14
2019-03-25T20:31:04.049Z,14
2019-03-25T20:36:06.767Z,13
2019-03-25T20:41:08.892Z,13
2019-03-25T20:46:11.392Z,12
2019-03-25T20:51:13.903Z,15
2019-03-25T20:56:16.322Z,15
2019-03-25T21:01:18.979Z,17
2019-03-25T21:06:21.552Z,19
2019-03-25T21:11:23.638Z,19
2019-03-25T21:16:26.152Z,22
2019-03-25T21:21:28.606Z,29
2019-03-25T21:26:31.045Z,26
2019-03-25T21:31:33.544Z,25
2019-03-25T21:36:36.046Z,24
2019-03-25T21:41:38.426Z,22
2019-03-25T21:46:40.883Z,23
2019-03-25T21:51:43.321Z,20
2019-03-25T21:56:45.794Z,20
2019-03-25T22:01:48.258Z,25
2019-03-25T22:06:50.735Z,25
2019-03-25T22:11:53.259Z,29
2019-03-25T22:16:55.717Z,29
2019-03-25T22:21:58.115Z,28
2019-03-25T22:27:00.573Z,32
2019-03-25T22:32:03.020Z,33
2019-03-25T22:37:05.919Z,34
2019-03-25T22:42:07.949Z,30
2019-03-25T22:47:10.560Z,26
2019-03-25T22:57:15.349Z,27
2019-03-25T23:02:17.813Z,23
2019-03-25T23:07:20.571Z,25
2019-03-25T23:17:25.263Z,23
2019-03-25T23:22:27.775Z,23
2019-03-25T23:27:30.144Z,22
2019-03-25T23:32:32.617Z,24
2019-03-25T23:37:35.352Z,21
2019-03-25T23:42:37.585Z,24
2019-03-25T23:47:39.989Z,21
2019-03-25T23:52:42.444Z,21
2019-03-25T23:57:44.909Z,23
